UKWW/VIN METAR and TAF weather

Enter ICAO airport designator
Station Type Date Time Source
UKWW METAR 2019/02/20 08:00 UTC NOAA

UKWW 200800Z 31006MPS 9000 NSC 04/03 Q1013 R31/320160 NOSIG


Station Type Date Time Source
UKWW Decoded METAR 2019/02/20 08:00 UTC NOAA

Station name not available
Feb 20, 2019 - 03:00 AM EST / 2019.02.20 0800 UTC
Wind: from the NW (310 degrees) at 13 MPH (12 KT):0
Visibility: 5 mile(s):0
Temperature: 39 F (4 C)
Dew Point: 37 F (3 C)
Relative Humidity: 93%
Pressure (altimeter): 29.91 in. Hg (1013 hPa)
ob: UKWW 200800Z 31006MPS 9000 NSC 04/03 Q1013 R31/320160 NOSIG
cycle: 8

Station Type Date Time Source
UKWW TAF 2010/03/21 10:45 UTC NOAA

TAF UKWW 211045Z 2112/2212 24005G10MPS 9999 SCT020 BKN070
TEMPO 2115/2207 1400 -SHRA BR SCT004 BKN007CB
FM220700 34007G12MPS 9999 SCT015 BKN100 TX11/2112Z TN01/2204Z


Example: see airport list